createdAt,value
2022-12-26T00:04:51.021Z,12.80
2022-12-26T00:09:44.756Z,12.80
2022-12-26T00:14:46.633Z,12.80
2022-12-26T00:19:48.561Z,12.70
2022-12-26T00:24:50.308Z,12.60
2022-12-26T00:29:52.954Z,12.50
2022-12-26T00:34:54.714Z,12.40
2022-12-26T00:40:04.115Z,12.30
2022-12-26T00:45:06.264Z,12.30
2022-12-26T00:50:13.221Z,12.10
2022-12-26T00:55:16.272Z,12.10
2022-12-26T01:00:18.117Z,12.00
2022-12-26T01:05:19.907Z,11.90
2022-12-26T01:10:21.638Z,11.80
2022-12-26T01:15:23.340Z,11.70
2022-12-26T01:20:25.099Z,11.60
2022-12-26T01:25:26.874Z,11.50
2022-12-26T01:30:28.846Z,11.50
2022-12-26T01:35:30.623Z,11.40
2022-12-26T01:40:32.413Z,11.40
2022-12-26T01:45:34.339Z,11.50
2022-12-26T01:50:43.976Z,11.60
2022-12-26T01:55:51.842Z,11.60
2022-12-26T02:00:54.245Z,11.70
2022-12-26T02:05:59.157Z,11.70
2022-12-26T02:11:00.831Z,11.80
2022-12-26T02:16:05.548Z,11.80
2022-12-26T02:21:12.923Z,11.80
2022-12-26T02:26:35.791Z,11.90
2022-12-26T02:31:58.085Z,11.90
2022-12-26T02:37:02.617Z,11.90
2022-12-26T02:42:13.679Z,11.80
2022-12-26T02:47:38.321Z,11.90
2022-12-26T02:53:07.783Z,11.90
2022-12-26T02:58:45.042Z,11.90
2022-12-26T03:04:07.879Z,11.90
2022-12-26T03:09:33.416Z,12.10
2022-12-26T03:14:55.479Z,12.20
2022-12-26T03:20:02.710Z,12.30
2022-12-26T03:25:44.344Z,12.20
2022-12-26T03:30:49.011Z,12.10
2022-12-26T03:35:52.068Z,12.10
2022-12-26T03:41:21.356Z,12.00
2022-12-26T03:46:55.205Z,11.90
2022-12-26T03:52:18.243Z,11.90
2022-12-26T03:57:43.433Z,11.80
2022-12-26T04:03:06.092Z,11.70
2022-12-26T04:08:35.704Z,11.80
2022-12-26T04:14:47.184Z,11.70
2022-12-26T04:20:09.271Z,11.70
2022-12-26T04:25:50.155Z,11.70
2022-12-26T04:31:19.484Z,11.70
2022-12-26T04:36:49.136Z,11.70
2022-12-26T04:42:11.371Z,11.70
2022-12-26T04:47:13.249Z,11.70
2022-12-26T04:52:15.484Z,11.70
2022-12-26T04:57:17.153Z,11.70
2022-12-26T05:02:37.704Z,11.70
2022-12-26T05:07:58.127Z,11.80
2022-12-26T05:12:59.812Z,11.80
2022-12-26T05:18:20.110Z,11.80
2022-12-26T05:23:45.476Z,11.90
2022-12-26T05:28:54.425Z,11.80
2022-12-26T05:34:12.843Z,11.70
2022-12-26T05:39:14.868Z,11.80
2022-12-26T05:44:16.713Z,11.70
2022-12-26T05:49:18.540Z,11.60
2022-12-26T05:54:20.257Z,11.60
2022-12-26T05:59:22.051Z,11.50
2022-12-26T06:04:23.792Z,11.40
2022-12-26T06:09:25.656Z,11.40
2022-12-26T06:14:27.403Z,11.30
2022-12-26T06:19:29.098Z,11.30
2022-12-26T06:24:30.787Z,11.30
2022-12-26T06:29:32.502Z,11.20
2022-12-26T06:34:34.240Z,11.20
2022-12-26T06:39:36.004Z,11.00
2022-12-26T06:44:37.643Z,11.10
2022-12-26T06:49:39.431Z,11.10
2022-12-26T06:54:41.225Z,11.10
2022-12-26T06:59:42.953Z,11.10
2022-12-26T07:04:44.706Z,11.00
2022-12-26T07:09:46.438Z,11.20
2022-12-26T07:14:48.709Z,11.00
2022-12-26T07:19:52.210Z,11.00
2022-12-26T07:24:53.929Z,11.00
2022-12-26T07:29:55.633Z,11.00
2022-12-26T07:34:57.400Z,10.90
2022-12-26T07:39:59.612Z,10.80
2022-12-26T07:45:01.327Z,10.80
2022-12-26T07:50:03.153Z,10.70
2022-12-26T07:55:05.191Z,10.70
2022-12-26T08:00:07.842Z,10.70
2022-12-26T08:05:09.636Z,10.70
2022-12-26T08:10:11.299Z,10.60
2022-12-26T08:15:13.828Z,10.60
2022-12-26T08:20:15.812Z,10.60
2022-12-26T08:25:20.177Z,10.60
2022-12-26T08:30:24.008Z,10.60
2022-12-26T08:35:25.738Z,10.60
2022-12-26T08:40:42.549Z,10.70
2022-12-26T08:45:45.169Z,10.70
2022-12-26T08:50:46.852Z,10.70
2022-12-26T08:55:48.646Z,10.70
2022-12-26T09:00:55.263Z,10.70
2022-12-26T09:06:05.669Z,10.70
2022-12-26T09:11:14.397Z,10.70
2022-12-26T09:16:18.628Z,10.80
2022-12-26T09:21:20.407Z,10.80
2022-12-26T09:26:22.120Z,10.80
2022-12-26T09:31:26.205Z,11.00
2022-12-26T09:36:31.095Z,11.10
2022-12-26T09:42:03.758Z,11.20
2022-12-26T09:47:14.618Z,11.30
2022-12-26T09:52:20.602Z,11.30
2022-12-26T09:57:41.678Z,11.40
2022-12-26T10:02:43.441Z,11.40
2022-12-26T10:08:14.369Z,11.50
2022-12-26T10:13:51.019Z,11.60
2022-12-26T10:19:20.571Z,11.80
2022-12-26T10:24:25.433Z,12.00
2022-12-26T10:29:33.616Z,11.90
2022-12-26T10:34:47.711Z,12.10
2022-12-26T10:40:03.630Z,12.10
2022-12-26T10:45:36.484Z,12.20
2022-12-26T10:50:40.124Z,12.20
2022-12-26T10:55:42.020Z,12.30
2022-12-26T11:00:44.087Z,12.30
2022-12-26T11:11:18.302Z,12.40
2022-12-26T11:16:35.502Z,12.40
2022-12-26T11:21:37.269Z,12.50
2022-12-26T11:26:39.115Z,12.50
2022-12-26T11:31:43.822Z,12.50
2022-12-26T11:36:49.286Z,12.50
2022-12-26T11:41:51.811Z,12.60
2022-12-26T11:47:17.644Z,12.60
2022-12-26T11:52:39.622Z,12.60
2022-12-26T11:57:41.446Z,12.60
2022-12-26T12:02:44.137Z,12.50
2022-12-26T12:08:07.372Z,12.50
2022-12-26T12:13:22.884Z,12.40
2022-12-26T12:19:05.132Z,12.40
2022-12-26T12:24:25.257Z,12.40
2022-12-26T12:29:53.432Z,12.30
2022-12-26T12:35:18.049Z,12.30
2022-12-26T12:40:19.755Z,12.10
2022-12-26T12:45:21.513Z,12.10
2022-12-26T12:50:31.663Z,12.00
2022-12-26T12:55:46.578Z,11.90
2022-12-26T13:01:13.657Z,11.90
2022-12-26T13:06:40.659Z,11.90
2022-12-26T13:11:53.475Z,11.90
2022-12-26T13:17:04.847Z,11.80
2022-12-26T13:22:16.865Z,11.80
2022-12-26T13:27:25.502Z,11.80
2022-12-26T13:32:33.659Z,11.80
2022-12-26T13:37:38.395Z,11.80
2022-12-26T13:43:10.458Z,11.70
2022-12-26T13:48:18.114Z,11.70
2022-12-26T13:53:25.977Z,11.60
2022-12-26T13:58:53.522Z,11.70
2022-12-26T14:04:13.367Z,11.60
2022-12-26T14:09:38.391Z,11.60
2022-12-26T14:14:54.345Z,11.60
2022-12-26T14:20:05.550Z,11.60
2022-12-26T14:25:35.408Z,11.60
2022-12-26T14:31:15.027Z,11.50
2022-12-26T14:36:19.505Z,11.10
2022-12-26T14:41:40.503Z,10.80
2022-12-26T14:46:42.174Z,10.60
2022-12-26T14:51:44.367Z,10.30
2022-12-26T14:56:46.321Z,10.20
2022-12-26T15:01:59.625Z,10.10
2022-12-26T15:07:20.920Z,10.00
2022-12-26T15:12:53.769Z,9.90
2022-12-26T15:18:35.263Z,9.80
2022-12-26T15:24:06.838Z,9.70
2022-12-26T15:29:26.600Z,9.60
2022-12-26T15:34:37.016Z,9.60
2022-12-26T15:40:22.104Z,9.50
2022-12-26T15:45:35.774Z,9.40
2022-12-26T15:51:06.442Z,9.30
2022-12-26T15:56:38.782Z,9.20
2022-12-26T16:01:46.200Z,9.00
2022-12-26T16:07:06.980Z,9.00
2022-12-26T16:12:24.892Z,8.90
2022-12-26T16:17:27.885Z,8.90
2022-12-26T16:22:48.156Z,8.80
2022-12-26T16:27:53.424Z,8.70
2022-12-26T16:32:56.062Z,8.60
2022-12-26T16:38:00.298Z,8.40
2022-12-26T16:43:18.196Z,8.30
2022-12-26T16:48:23.104Z,8.20
2022-12-26T16:53:45.246Z,8.20
2022-12-26T16:58:47.672Z,8.10
2022-12-26T17:03:57.173Z,8.00
2022-12-26T17:09:16.920Z,7.80
2022-12-26T17:14:25.647Z,7.80
2022-12-26T17:19:33.293Z,7.70
2022-12-26T17:24:34.969Z,7.60
2022-12-26T17:29:53.383Z,7.60
2022-12-26T17:34:55.385Z,7.50
2022-12-26T17:40:12.363Z,7.50
2022-12-26T17:45:22.796Z,7.40
2022-12-26T17:50:30.337Z,7.40
2022-12-26T17:55:32.155Z,7.40
2022-12-26T18:00:33.889Z,7.30
2022-12-26T18:05:37.062Z,7.20
2022-12-26T18:10:38.943Z,7.10
2022-12-26T18:15:40.682Z,7.00
2022-12-26T18:20:42.318Z,6.90
2022-12-26T18:25:44.060Z,7.00
2022-12-26T18:30:45.883Z,6.80
2022-12-26T18:35:47.974Z,6.60
2022-12-26T18:40:58.004Z,6.50
2022-12-26T18:45:59.872Z,6.40
2022-12-26T18:51:02.738Z,6.30
2022-12-26T18:56:05.604Z,6.20
2022-12-26T19:01:07.468Z,6.10
2022-12-26T19:06:22.983Z,6.00
2022-12-26T19:11:25.213Z,5.90
2022-12-26T19:16:27.193Z,5.90
2022-12-26T19:21:29.037Z,5.80
2022-12-26T19:26:30.720Z,5.70
2022-12-26T19:31:32.496Z,5.60
2022-12-26T19:36:34.363Z,5.50
2022-12-26T19:41:36.051Z,5.50
2022-12-26T19:46:37.833Z,5.40
2022-12-26T19:51:39.671Z,5.30
2022-12-26T19:56:41.832Z,5.20
2022-12-26T20:01:43.678Z,5.20
2022-12-26T20:06:45.491Z,5.10
2022-12-26T20:11:53.928Z,5.10
2022-12-26T20:17:08.208Z,5.00
2022-12-26T20:22:11.501Z,4.90
2022-12-26T20:27:13.844Z,4.80
2022-12-26T20:32:15.509Z,4.70
2022-12-26T20:37:18.067Z,4.60
2022-12-26T20:42:19.848Z,4.50
2022-12-26T20:47:21.671Z,4.50
2022-12-26T20:52:23.513Z,4.40
2022-12-26T20:57:25.259Z,4.40
2022-12-26T21:02:27.046Z,4.30
2022-12-26T21:07:32.279Z,4.20
2022-12-26T21:12:33.969Z,4.20
2022-12-26T21:17:36.881Z,4.20
2022-12-26T21:22:38.577Z,4.10
2022-12-26T21:27:42.872Z,4.10
2022-12-26T21:32:47.696Z,4.00
2022-12-26T21:37:51.261Z,4.00
2022-12-26T21:42:52.980Z,4.00
2022-12-26T21:47:54.687Z,4.00
2022-12-26T21:52:56.447Z,4.00
2022-12-26T21:58:00.984Z,4.00
2022-12-26T22:03:21.796Z,4.00
2022-12-26T22:08:23.570Z,4.00
2022-12-26T22:13:26.639Z,4.00
2022-12-26T22:18:42.782Z,3.90
2022-12-26T22:23:45.055Z,3.80
2022-12-26T22:28:47.311Z,3.80
2022-12-26T22:33:57.393Z,3.70
2022-12-26T22:38:59.843Z,3.70
2022-12-26T22:44:01.741Z,3.60
2022-12-26T22:49:03.804Z,3.60
2022-12-26T22:54:05.869Z,3.60
2022-12-26T22:59:07.645Z,3.50
2022-12-26T23:04:12.476Z,3.50
2022-12-26T23:09:16.188Z,3.40
2022-12-26T23:14:17.888Z,3.40
2022-12-26T23:19:51.072Z,3.40
2022-12-26T23:24:55.530Z,3.40
2022-12-26T23:30:16.122Z,3.40
2022-12-26T23:35:19.320Z,3.40
2022-12-26T23:40:22.309Z,3.40
2022-12-26T23:45:23.979Z,3.30
2022-12-26T23:50:25.681Z,3.30
2022-12-26T23:55:27.366Z,3.30
